createdAt,value
2022-11-27T00:00:58.919Z,62.00
2022-11-27T00:03:28.340Z,61.90
2022-11-27T00:05:56.615Z,62.10
2022-11-27T00:08:24.434Z,62.00
2022-11-27T00:10:52.212Z,62.10
2022-11-27T00:13:20.055Z,61.90
2022-11-27T00:15:48.011Z,61.70
2022-11-27T00:18:16.133Z,61.80
2022-11-27T00:20:45.377Z,61.90
2022-11-27T00:23:13.797Z,61.60
2022-11-27T00:25:41.739Z,61.70
2022-11-27T00:28:09.750Z,61.70
2022-11-27T00:30:37.811Z,61.60
2022-11-27T00:33:05.837Z,61.60
2022-11-27T00:35:34.072Z,61.80
2022-11-27T00:38:03.515Z,61.70
2022-11-27T00:40:31.913Z,61.80
2022-11-27T00:43:01.397Z,61.70
2022-11-27T00:45:29.417Z,61.60
2022-11-27T00:47:57.460Z,61.90
2022-11-27T00:50:25.733Z,61.70
2022-11-27T00:52:53.622Z,61.70
2022-11-27T00:55:23.140Z,61.60
2022-11-27T00:57:51.157Z,61.70
2022-11-27T01:00:20.142Z,61.60
2022-11-27T01:02:47.952Z,61.70
2022-11-27T01:05:16.189Z,61.60
2022-11-27T01:07:43.935Z,61.50
2022-11-27T01:10:13.102Z,61.60
2022-11-27T01:12:42.469Z,61.60
2022-11-27T01:15:12.139Z,61.60
2022-11-27T01:17:40.006Z,61.70
2022-11-27T01:20:09.107Z,61.40
2022-11-27T01:22:36.988Z,61.50
2022-11-27T01:25:05.215Z,61.60
2022-11-27T01:27:33.672Z,61.60
2022-11-27T01:30:03.073Z,61.40
2022-11-27T01:32:31.183Z,61.40
2022-11-27T01:34:59.103Z,61.40
2022-11-27T01:37:27.439Z,61.40
2022-11-27T01:39:55.555Z,61.40
2022-11-27T01:42:23.644Z,61.30
2022-11-27T01:44:54.653Z,61.40
2022-11-27T01:47:33.876Z,61.30
2022-11-27T01:50:12.497Z,61.90
2022-11-27T01:52:42.373Z,61.10
2022-11-27T01:55:11.884Z,61.10
2022-11-27T01:57:42.632Z,61.10
2022-11-27T02:00:13.107Z,61.20
2022-11-27T02:02:43.346Z,61.10
2022-11-27T02:05:14.099Z,61.00
2022-11-27T02:07:42.159Z,60.90
2022-11-27T02:10:10.415Z,60.90
2022-11-27T02:12:43.541Z,60.80
2022-11-27T02:15:14.206Z,60.90
2022-11-27T02:17:46.728Z,60.80
2022-11-27T02:20:23.181Z,60.80
2022-11-27T02:23:07.668Z,60.80
2022-11-27T02:25:38.841Z,60.60
2022-11-27T02:28:16.709Z,60.70
2022-11-27T02:30:50.762Z,60.60
2022-11-27T02:33:19.708Z,60.60
2022-11-27T02:35:49.997Z,60.60
2022-11-27T02:38:19.605Z,60.40
2022-11-27T02:40:51.549Z,60.40
2022-11-27T02:43:21.381Z,60.70
2022-11-27T02:45:51.704Z,60.50
2022-11-27T02:48:21.146Z,60.60
2022-11-27T02:50:49.050Z,60.40
2022-11-27T02:53:22.765Z,60.30
2022-11-27T02:55:51.467Z,60.40
2022-11-27T02:58:21.543Z,60.40
2022-11-27T03:00:50.862Z,60.20
2022-11-27T03:03:19.911Z,60.20
2022-11-27T03:05:48.738Z,60.30
2022-11-27T03:08:19.503Z,60.20
2022-11-27T03:10:50.165Z,60.20
2022-11-27T03:13:18.083Z,60.10
2022-11-27T03:15:51.074Z,60.10
2022-11-27T03:18:22.642Z,60.00
2022-11-27T03:20:52.091Z,60.10
2022-11-27T03:23:20.064Z,60.10
2022-11-27T03:25:48.326Z,60.10
2022-11-27T03:28:16.234Z,60.00
2022-11-27T03:30:44.898Z,60.10
2022-11-27T03:33:12.859Z,60.00
2022-11-27T03:35:42.737Z,60.10
2022-11-27T03:38:10.669Z,59.90
2022-11-27T03:40:42.553Z,59.80
2022-11-27T03:43:13.164Z,59.80
2022-11-27T03:45:45.124Z,59.80
2022-11-27T03:48:18.495Z,59.80
2022-11-27T03:50:53.076Z,59.60
2022-11-27T03:53:23.379Z,59.90
2022-11-27T03:55:53.788Z,59.80
2022-11-27T03:58:24.259Z,59.70
2022-11-27T04:00:52.091Z,59.60
2022-11-27T04:03:24.846Z,59.60
2022-11-27T04:05:54.177Z,59.40
2022-11-27T04:08:22.270Z,59.40
2022-11-27T04:10:50.275Z,59.30
2022-11-27T04:13:18.562Z,59.50
2022-11-27T04:15:46.375Z,59.40
2022-11-27T04:18:14.763Z,59.40
2022-11-27T04:20:42.679Z,59.30
2022-11-27T04:23:12.042Z,59.40
2022-11-27T04:25:40.018Z,59.40
2022-11-27T04:28:08.390Z,59.30
2022-11-27T04:30:36.245Z,59.30
2022-11-27T04:33:04.168Z,59.00
2022-11-27T04:35:32.080Z,59.20
2022-11-27T04:38:00.445Z,59.20
2022-11-27T04:40:29.711Z,59.10
2022-11-27T04:42:58.141Z,59.10
2022-11-27T04:45:26.046Z,59.00
2022-11-27T04:47:53.992Z,59.10
2022-11-27T04:50:22.396Z,58.90
2022-11-27T04:52:50.419Z,58.90
2022-11-27T04:55:19.027Z,59.20
2022-11-27T04:57:48.435Z,58.60
2022-11-27T05:00:16.997Z,58.90
2022-11-27T05:02:44.981Z,58.80
2022-11-27T05:05:13.508Z,58.90
2022-11-27T05:07:41.477Z,58.70
2022-11-27T05:10:10.877Z,58.90
2022-11-27T05:12:39.015Z,58.90
2022-11-27T05:15:10.912Z,58.90
2022-11-27T05:17:38.869Z,58.60
2022-11-27T05:20:08.170Z,58.80
2022-11-27T05:22:36.496Z,58.70
2022-11-27T05:25:04.522Z,58.60
2022-11-27T05:27:32.966Z,58.50
2022-11-27T05:30:01.079Z,58.60
2022-11-27T05:32:30.438Z,58.50
2022-11-27T05:34:58.356Z,58.80
2022-11-27T05:37:26.787Z,58.70
2022-11-27T05:39:54.740Z,58.60
2022-11-27T05:42:23.122Z,58.60
2022-11-27T05:44:56.670Z,58.60
2022-11-27T05:47:26.604Z,58.60
2022-11-27T05:49:56.091Z,58.70
2022-11-27T05:52:24.554Z,58.60
2022-11-27T05:54:52.640Z,58.40
2022-11-27T05:57:21.026Z,58.40
2022-11-27T05:59:48.788Z,58.50
2022-11-27T06:02:22.506Z,58.40
2022-11-27T06:04:52.933Z,58.30
2022-11-27T06:07:23.025Z,58.30
2022-11-27T06:09:51.205Z,58.20
2022-11-27T06:12:19.577Z,58.60
2022-11-27T06:14:47.701Z,58.40
2022-11-27T06:17:16.654Z,58.50
2022-11-27T06:19:44.550Z,58.30
2022-11-27T06:22:12.481Z,58.30
2022-11-27T06:24:42.569Z,58.20
2022-11-27T06:27:10.785Z,58.20
2022-11-27T06:29:39.437Z,58.20
2022-11-27T06:32:07.599Z,58.20
2022-11-27T06:34:36.000Z,58.40
2022-11-27T06:37:04.748Z,58.40
2022-11-27T06:39:33.416Z,58.40
2022-11-27T06:42:02.541Z,58.20
2022-11-27T06:44:30.959Z,58.20
2022-11-27T06:46:58.839Z,58.30
2022-11-27T06:49:27.282Z,58.20
2022-11-27T06:51:55.307Z,58.20
2022-11-27T06:54:23.372Z,58.10
2022-11-27T06:56:51.447Z,58.10
2022-11-27T06:59:21.022Z,58.20
2022-11-27T07:01:48.934Z,58.30
2022-11-27T07:04:17.087Z,58.20
2022-11-27T07:06:45.564Z,58.10
2022-11-27T07:09:13.559Z,58.20
2022-11-27T07:11:41.875Z,58.70
2022-11-27T07:14:10.620Z,58.10
2022-11-27T07:16:39.946Z,58.20
2022-11-27T07:19:08.447Z,58.00
2022-11-27T07:21:38.215Z,58.10
2022-11-27T07:24:06.541Z,58.10
2022-11-27T07:26:34.784Z,58.00
2022-11-27T07:29:02.623Z,58.30
2022-11-27T07:31:31.473Z,58.20
2022-11-27T07:34:00.874Z,58.20
2022-11-27T07:36:30.393Z,58.10
2022-11-27T07:38:58.756Z,58.10
2022-11-27T07:41:32.220Z,58.10
2022-11-27T07:44:01.916Z,58.10
2022-11-27T07:46:30.740Z,58.20
2022-11-27T07:49:01.395Z,58.00
2022-11-27T07:51:29.767Z,58.20
2022-11-27T07:53:57.689Z,58.10
2022-11-27T07:56:26.006Z,58.10
2022-11-27T07:58:53.885Z,58.30
2022-11-27T08:01:22.761Z,58.00
2022-11-27T08:03:50.844Z,58.10
2022-11-27T08:06:21.318Z,58.10
2022-11-27T08:08:49.638Z,58.20
2022-11-27T08:11:19.142Z,58.10
2022-11-27T08:13:47.686Z,58.20
2022-11-27T08:16:15.878Z,58.20
2022-11-27T08:18:43.665Z,58.10
2022-11-27T08:21:11.664Z,58.10
2022-11-27T08:23:41.553Z,58.10
2022-11-27T08:26:10.039Z,58.10
2022-11-27T08:28:38.516Z,58.20
2022-11-27T08:31:09.471Z,58.30
2022-11-27T08:33:38.031Z,58.20
2022-11-27T08:36:08.980Z,58.60
2022-11-27T08:38:40.576Z,58.70
2022-11-27T08:41:09.021Z,58.80
2022-11-27T08:43:37.620Z,59.00
2022-11-27T08:46:06.011Z,59.00
2022-11-27T08:48:33.999Z,59.00
2022-11-27T08:51:06.927Z,59.20
2022-11-27T08:53:36.039Z,59.70
2022-11-27T08:56:09.153Z,59.00
2022-11-27T08:58:37.218Z,59.20
2022-11-27T09:01:09.767Z,59.20
2022-11-27T09:03:38.025Z,59.10
2022-11-27T09:06:08.541Z,59.20
2022-11-27T09:08:36.830Z,59.50
2022-11-27T09:11:06.470Z,59.50
2022-11-27T09:13:37.088Z,59.50
2022-11-27T09:16:05.218Z,59.50
2022-11-27T09:18:33.732Z,59.70
2022-11-27T09:21:02.249Z,59.60
2022-11-27T09:23:30.531Z,59.70
2022-11-27T09:25:59.786Z,59.70
2022-11-27T09:28:31.577Z,59.80
2022-11-27T09:31:02.263Z,59.60
2022-11-27T09:33:31.568Z,59.70
2022-11-27T09:35:59.901Z,59.60
2022-11-27T09:38:27.904Z,59.70
2022-11-27T09:41:03.122Z,59.60
2022-11-27T09:43:33.116Z,59.60
2022-11-27T09:46:08.347Z,59.80
2022-11-27T09:48:39.987Z,59.70
2022-11-27T09:51:10.505Z,59.70
2022-11-27T09:53:41.426Z,59.60
2022-11-27T09:56:11.026Z,59.90
2022-11-27T09:58:40.121Z,59.70
2022-11-27T10:01:12.842Z,59.90
2022-11-27T10:03:41.891Z,59.80
2022-11-27T10:06:21.093Z,59.80
2022-11-27T10:08:52.536Z,59.80
2022-11-27T10:11:24.444Z,59.90
2022-11-27T10:14:00.133Z,59.80
2022-11-27T10:16:33.738Z,59.80
2022-11-27T10:19:07.051Z,59.90
2022-11-27T10:21:38.822Z,59.90
2022-11-27T10:24:09.059Z,60.00
2022-11-27T10:26:40.062Z,59.90
2022-11-27T10:29:14.410Z,59.80
2022-11-27T10:31:46.710Z,59.80
2022-11-27T10:34:22.731Z,60.00
2022-11-27T10:36:50.558Z,60.00
2022-11-27T10:39:23.500Z,60.00
2022-11-27T10:41:53.177Z,60.20
2022-11-27T10:44:28.578Z,60.70
2022-11-27T10:46:59.684Z,60.00
2022-11-27T10:49:27.658Z,60.00
2022-11-27T10:51:56.031Z,60.00
2022-11-27T10:54:27.257Z,59.90
2022-11-27T10:57:07.167Z,60.00
2022-11-27T10:59:36.429Z,59.90
2022-11-27T11:02:08.116Z,59.90
2022-11-27T11:04:38.706Z,59.90
2022-11-27T11:07:23.372Z,60.00
2022-11-27T11:09:51.186Z,59.90
2022-11-27T11:12:21.464Z,60.00
2022-11-27T11:14:52.961Z,60.00
2022-11-27T11:17:26.401Z,59.90
2022-11-27T11:19:54.712Z,60.20
2022-11-27T11:22:23.292Z,60.00
2022-11-27T11:24:52.326Z,60.30
2022-11-27T11:27:22.504Z,60.30
2022-11-27T11:29:50.963Z,60.00
2022-11-27T11:32:24.256Z,60.10
2022-11-27T11:35:00.552Z,60.30
2022-11-27T11:37:30.530Z,60.30
2022-11-27T11:39:59.652Z,60.10
2022-11-27T11:42:28.838Z,60.00
2022-11-27T11:45:01.867Z,60.20
2022-11-27T11:47:30.366Z,60.20
2022-11-27T11:49:59.780Z,60.10
2022-11-27T11:52:39.395Z,60.20
2022-11-27T11:55:12.055Z,60.00
2022-11-27T11:57:59.755Z,60.20
2022-11-27T12:00:38.704Z,60.20
2022-11-27T12:03:28.026Z,60.10
2022-11-27T12:06:05.383Z,60.20
2022-11-27T12:08:48.108Z,60.20
2022-11-27T12:11:17.083Z,59.90
2022-11-27T12:13:56.698Z,60.30
2022-11-27T12:16:27.666Z,60.30
2022-11-27T12:19:04.834Z,60.30
2022-11-27T12:21:39.858Z,60.20
2022-11-27T12:24:15.351Z,60.40
2022-11-27T12:26:50.988Z,60.40
2022-11-27T12:29:31.007Z,60.30
2022-11-27T12:32:21.513Z,60.60
2022-11-27T12:34:56.982Z,60.40
2022-11-27T12:37:33.161Z,60.40
2022-11-27T12:40:22.235Z,60.60
2022-11-27T12:42:51.690Z,60.40
2022-11-27T12:45:21.134Z,60.50
2022-11-27T12:47:50.315Z,60.50
2022-11-27T12:50:23.499Z,60.60
2022-11-27T12:52:56.384Z,60.40
2022-11-27T12:55:27.209Z,60.60
2022-11-27T12:57:56.727Z,60.40
2022-11-27T13:00:25.915Z,60.50
2022-11-27T13:03:01.372Z,60.60
2022-11-27T13:05:31.571Z,60.30
2022-11-27T13:08:02.680Z,60.20
2022-11-27T13:10:34.122Z,60.00
2022-11-27T13:13:05.541Z,60.00
2022-11-27T13:15:36.147Z,60.00
2022-11-27T13:18:10.927Z,59.90
2022-11-27T13:20:40.184Z,59.70
2022-11-27T13:23:09.600Z,59.70
2022-11-27T13:25:40.875Z,59.60
2022-11-27T13:28:08.942Z,59.80
2022-11-27T13:30:37.457Z,59.80
2022-11-27T13:33:07.151Z,59.90
2022-11-27T13:35:38.959Z,59.80
2022-11-27T13:38:10.909Z,59.90
2022-11-27T13:40:39.935Z,59.90
2022-11-27T13:43:16.513Z,60.00
2022-11-27T13:45:44.548Z,60.10
2022-11-27T13:48:24.795Z,60.10
2022-11-27T13:50:52.844Z,60.00
2022-11-27T13:53:33.032Z,60.00
2022-11-27T13:56:01.118Z,60.20
2022-11-27T13:58:33.244Z,60.30
2022-11-27T14:01:01.598Z,60.20
2022-11-27T14:03:31.696Z,60.30
2022-11-27T14:05:59.728Z,60.30
2022-11-27T14:08:28.564Z,60.20
2022-11-27T14:10:59.688Z,60.40
2022-11-27T14:13:36.285Z,60.40
2022-11-27T14:16:05.030Z,60.50
2022-11-27T14:18:33.090Z,60.50
2022-11-27T14:21:02.193Z,60.70
2022-11-27T14:23:31.221Z,60.50
2022-11-27T14:26:05.340Z,60.60
2022-11-27T14:28:33.425Z,60.70
2022-11-27T14:31:01.994Z,60.90
2022-11-27T14:33:31.161Z,60.90
2022-11-27T14:35:59.878Z,60.90
2022-11-27T14:38:28.787Z,60.90
2022-11-27T14:41:08.256Z,61.00
2022-11-27T14:43:37.619Z,61.10
2022-11-27T14:46:09.810Z,61.10
2022-11-27T14:48:43.941Z,60.90
2022-11-27T14:51:15.715Z,61.10
2022-11-27T14:53:43.718Z,61.30
2022-11-27T14:56:11.687Z,61.30
2022-11-27T14:58:41.933Z,61.20
2022-11-27T15:01:10.078Z,61.30
2022-11-27T15:03:38.752Z,61.40
2022-11-27T15:06:08.124Z,61.40
2022-11-27T15:08:37.032Z,61.30
2022-11-27T15:11:05.920Z,61.40
2022-11-27T15:13:34.721Z,61.60
2022-11-27T15:16:05.603Z,61.60
2022-11-27T15:18:34.981Z,61.60
2022-11-27T15:21:03.037Z,61.60
2022-11-27T15:23:32.148Z,61.70
2022-11-27T15:26:15.028Z,61.70
2022-11-27T15:28:43.599Z,61.70
2022-11-27T15:31:28.297Z,61.70
2022-11-27T15:33:57.737Z,61.60
2022-11-27T15:36:26.479Z,61.70
2022-11-27T15:38:54.458Z,61.70
2022-11-27T15:41:24.697Z,61.90
2022-11-27T15:43:52.780Z,61.80
2022-11-27T15:46:26.560Z,61.90
2022-11-27T15:48:54.656Z,62.00
2022-11-27T15:51:22.674Z,61.80
2022-11-27T15:53:50.764Z,61.80
2022-11-27T15:56:19.505Z,61.80
2022-11-27T15:58:47.636Z,61.90
2022-11-27T16:01:15.739Z,61.80
2022-11-27T16:03:45.522Z,62.10
2022-11-27T16:06:14.301Z,61.90
2022-11-27T16:08:42.417Z,61.90
2022-11-27T16:11:13.640Z,62.20
2022-11-27T16:13:41.632Z,62.00
2022-11-27T16:16:09.953Z,62.10
2022-11-27T16:18:38.024Z,62.10
2022-11-27T16:21:09.229Z,62.00
2022-11-27T16:23:37.583Z,62.10
2022-11-27T16:26:06.211Z,62.20
2022-11-27T16:28:34.277Z,62.20
2022-11-27T16:31:03.232Z,62.20
2022-11-27T16:33:31.721Z,62.30
2022-11-27T16:36:08.904Z,62.30
2022-11-27T16:38:37.138Z,62.20
2022-11-27T16:41:06.742Z,62.40
2022-11-27T16:43:35.657Z,62.20
2022-11-27T16:46:05.467Z,62.10
2022-11-27T16:48:34.455Z,62.20
2022-11-27T16:51:07.787Z,62.30
2022-11-27T16:53:38.110Z,62.20
2022-11-27T16:56:07.264Z,62.40
2022-11-27T16:58:35.688Z,62.40
2022-11-27T17:01:05.863Z,62.40
2022-11-27T17:03:34.052Z,62.40
2022-11-27T17:06:02.077Z,62.40
2022-11-27T17:08:31.654Z,62.50
2022-11-27T17:11:01.631Z,62.60
2022-11-27T17:13:32.721Z,62.50
2022-11-27T17:16:01.961Z,62.40
2022-11-27T17:18:30.223Z,62.50
2022-11-27T17:21:02.505Z,62.50
2022-11-27T17:23:32.066Z,62.40
2022-11-27T17:26:00.219Z,63.20
2022-11-27T17:28:28.351Z,62.50
2022-11-27T17:30:56.332Z,62.50
2022-11-27T17:33:24.287Z,62.40
2022-11-27T17:35:52.279Z,62.40
2022-11-27T17:38:20.331Z,62.50
2022-11-27T17:40:49.879Z,62.40
2022-11-27T17:43:18.012Z,62.40
2022-11-27T17:45:46.142Z,62.40
2022-11-27T17:48:14.247Z,62.50
2022-11-27T17:50:42.537Z,62.50
2022-11-27T17:53:10.613Z,62.50
2022-11-27T17:55:38.775Z,62.50
2022-11-27T17:58:08.367Z,62.40
2022-11-27T18:00:36.506Z,62.40
2022-11-27T18:03:07.577Z,62.40
2022-11-27T18:05:38.161Z,62.40
2022-11-27T18:08:06.395Z,62.40
2022-11-27T18:10:34.440Z,62.50
2022-11-27T18:13:02.726Z,62.40
2022-11-27T18:15:32.580Z,62.40
2022-11-27T18:18:00.950Z,62.40
2022-11-27T18:20:29.123Z,62.40
2022-11-27T18:22:57.663Z,62.50
2022-11-27T18:25:26.156Z,62.50
2022-11-27T18:27:54.221Z,62.40
2022-11-27T18:30:22.665Z,62.50
2022-11-27T18:32:52.410Z,62.50
2022-11-27T18:35:24.420Z,62.40
2022-11-27T18:37:52.548Z,62.50
2022-11-27T18:40:21.258Z,62.50
2022-11-27T18:42:49.189Z,62.50
2022-11-27T18:45:32.178Z,62.60
2022-11-27T18:48:03.017Z,62.40
2022-11-27T18:50:31.448Z,62.30
2022-11-27T18:53:00.076Z,62.50
2022-11-27T18:55:28.036Z,62.70
2022-11-27T18:58:00.189Z,62.50
2022-11-27T19:00:28.190Z,62.60
2022-11-27T19:02:56.744Z,62.60
2022-11-27T19:05:26.331Z,62.70
2022-11-27T19:07:54.757Z,62.50
2022-11-27T19:10:22.892Z,62.60
2022-11-27T19:12:51.167Z,62.50
2022-11-27T19:15:19.244Z,62.40
2022-11-27T19:17:47.357Z,62.40
2022-11-27T19:20:15.493Z,62.50
2022-11-27T19:22:45.604Z,62.50
2022-11-27T19:25:13.858Z,62.40
2022-11-27T19:27:42.486Z,62.50
2022-11-27T19:30:11.444Z,62.40
2022-11-27T19:32:39.443Z,62.20
2022-11-27T19:35:09.230Z,62.40
2022-11-27T19:37:38.066Z,62.40
2022-11-27T19:40:09.170Z,62.30
2022-11-27T19:42:37.142Z,62.30
2022-11-27T19:45:06.073Z,62.20
2022-11-27T19:47:34.751Z,62.30
2022-11-27T19:50:02.690Z,62.30
2022-11-27T19:52:30.644Z,62.20
2022-11-27T19:54:58.625Z,62.20
2022-11-27T19:57:28.378Z,62.30
2022-11-27T19:59:56.805Z,62.70
2022-11-27T20:02:25.006Z,62.30
2022-11-27T20:04:53.690Z,62.20
2022-11-27T20:07:21.722Z,62.10
2022-11-27T20:09:50.323Z,62.20
2022-11-27T20:12:18.283Z,62.20
2022-11-27T20:14:47.747Z,62.00
2022-11-27T20:17:15.498Z,62.00
2022-11-27T20:19:44.085Z,62.00
2022-11-27T20:22:12.327Z,61.90
2022-11-27T20:24:58.460Z,62.00
2022-11-27T20:27:29.820Z,62.10
2022-11-27T20:30:00.336Z,61.90
2022-11-27T20:32:28.426Z,62.00
2022-11-27T20:34:56.613Z,62.10
2022-11-27T20:37:24.388Z,61.70
2022-11-27T20:39:52.893Z,61.90
2022-11-27T20:42:22.514Z,61.90
2022-11-27T20:44:51.011Z,62.00
2022-11-27T20:47:20.647Z,62.00
2022-11-27T20:49:48.591Z,62.00
2022-11-27T20:52:16.723Z,61.90
2022-11-27T20:54:44.763Z,61.90
2022-11-27T20:57:14.284Z,61.80
2022-11-27T20:59:42.351Z,61.90
2022-11-27T21:02:11.617Z,62.00
2022-11-27T21:04:41.292Z,61.80
2022-11-27T21:07:10.019Z,61.90
2022-11-27T21:09:38.545Z,61.80
2022-11-27T21:12:06.584Z,61.80
2022-11-27T21:14:34.545Z,61.80
2022-11-27T21:17:05.007Z,61.70
2022-11-27T21:19:33.407Z,61.60
2022-11-27T21:22:02.901Z,61.50
2022-11-27T21:24:30.934Z,61.70
2022-11-27T21:26:59.022Z,61.60
2022-11-27T21:29:28.562Z,61.60
2022-11-27T21:31:57.224Z,61.60
2022-11-27T21:34:26.077Z,61.80
2022-11-27T21:36:53.987Z,61.50
2022-11-27T21:39:24.864Z,61.50
2022-11-27T21:41:54.592Z,61.40
2022-11-27T21:44:22.729Z,61.40
2022-11-27T21:46:50.905Z,61.30
2022-11-27T21:49:19.391Z,61.40
2022-11-27T21:51:47.864Z,61.40
2022-11-27T21:54:16.072Z,61.10
2022-11-27T21:56:45.550Z,61.10
2022-11-27T21:59:14.624Z,61.40
2022-11-27T22:01:43.275Z,61.10
2022-11-27T22:04:11.294Z,61.10
2022-11-27T22:06:39.637Z,61.00
2022-11-27T22:09:13.423Z,60.90
2022-11-27T22:11:43.318Z,60.80
2022-11-27T22:14:12.485Z,60.80
2022-11-27T22:16:45.267Z,60.70
2022-11-27T22:19:14.336Z,60.80
2022-11-27T22:21:42.443Z,60.60
2022-11-27T22:24:16.517Z,60.70
2022-11-27T22:26:46.608Z,60.60
2022-11-27T22:29:15.725Z,60.30
2022-11-27T22:31:44.004Z,60.40
2022-11-27T22:34:12.002Z,60.60
2022-11-27T22:36:40.093Z,60.30
2022-11-27T22:39:08.785Z,60.40
2022-11-27T22:41:37.360Z,60.30
2022-11-27T22:44:06.680Z,60.40
2022-11-27T22:46:36.421Z,60.30
2022-11-27T22:49:05.240Z,60.40
2022-11-27T22:51:34.178Z,60.30
2022-11-27T22:54:02.144Z,60.30
2022-11-27T22:56:30.048Z,60.20
2022-11-27T22:59:24.620Z,60.20
2022-11-27T23:01:48.553Z,60.20
2022-11-27T23:04:16.560Z,60.10
2022-11-27T23:06:47.753Z,60.10
2022-11-27T23:09:15.573Z,60.70
2022-11-27T23:11:43.483Z,60.20
2022-11-27T23:14:11.388Z,60.10
2022-11-27T23:16:39.338Z,60.00
2022-11-27T23:19:08.635Z,60.00
2022-11-27T23:21:38.888Z,60.00
2022-11-27T23:24:08.015Z,60.10
2022-11-27T23:26:36.010Z,60.10
2022-11-27T23:29:04.186Z,59.90
2022-11-27T23:31:35.265Z,59.80
2022-11-27T23:34:04.338Z,60.00
2022-11-27T23:36:33.893Z,59.90
2022-11-27T23:39:02.449Z,59.80
2022-11-27T23:41:31.546Z,59.80
2022-11-27T23:43:59.627Z,59.80
2022-11-27T23:46:28.745Z,59.80
2022-11-27T23:48:57.400Z,59.80
2022-11-27T23:51:26.364Z,59.80
2022-11-27T23:53:55.785Z,59.80
2022-11-27T23:56:25.373Z,59.90
2022-11-27T23:58:54.355Z,59.90
